sensor_id;sensor_type;location;lat;lon;timestamp;pressure;altitude;pressure_sealevel;temperature;humidity
8049;BME280;20935;42.660;23.342;2023-07-31T00:00:37;94426.25;;;29.58;49.80
8049;BME280;20935;42.660;23.342;2023-07-31T00:03:23;94426.25;;;29.58;49.81
8049;BME280;20935;42.660;23.342;2023-07-31T00:06:09;94431.75;;;29.58;49.51
8049;BME280;20935;42.660;23.342;2023-07-31T00:08:54;94421.97;;;29.57;49.84
8049;BME280;20935;42.660;23.342;2023-07-31T00:11:40;94424.75;;;29.57;49.80
8049;BME280;20935;42.660;23.342;2023-07-31T00:14:25;94431.75;;;29.58;49.81
8049;BME280;20935;42.660;23.342;2023-07-31T00:17:11;94429.97;;;29.60;49.87
8049;BME280;20935;42.660;23.342;2023-07-31T00:19:57;94433.97;;;29.59;49.53
8049;BME280;20935;42.660;23.342;2023-07-31T00:22:43;94437.28;;;29.58;49.89
8049;BME280;20935;42.660;23.342;2023-07-31T00:25:28;94427.50;;;29.57;49.74
8049;BME280;20935;42.660;23.342;2023-07-31T00:28:13;94433.78;;;29.57;49.84
8049;BME280;20935;42.660;23.342;2023-07-31T00:30:59;94419.97;;;29.57;49.74
8049;BME280;20935;42.660;23.342;2023-07-31T00:33:45;94403.91;;;29.56;49.92
8049;BME280;20935;42.660;23.342;2023-07-31T00:36:32;94397.13;;;29.57;49.55
8049;BME280;20935;42.660;23.342;2023-07-31T00:39:17;94392.88;;;29.56;49.65
8049;BME280;20935;42.660;23.342;2023-07-31T00:42:03;94401.91;;;29.56;49.97
8049;BME280;20935;42.660;23.342;2023-07-31T00:44:49;94390.13;;;29.56;49.75
8049;BME280;20935;42.660;23.342;2023-07-31T00:47:35;94396.38;;;29.56;49.71
8049;BME280;20935;42.660;23.342;2023-07-31T00:50:21;94401.16;;;29.56;49.73
8049;BME280;20935;42.660;23.342;2023-07-31T00:53:08;94403.91;;;29.56;49.68
8049;BME280;20935;42.660;23.342;2023-07-31T00:55:54;94399.66;;;29.55;49.82
8049;BME280;20935;42.660;23.342;2023-07-31T00:58:39;94406.69;;;29.56;49.79
8049;BME280;20935;42.660;23.342;2023-07-31T01:01:25;94401.16;;;29.56;49.90
8049;BME280;20935;42.660;23.342;2023-07-31T01:04:11;94392.88;;;29.56;49.79
8049;BME280;20935;42.660;23.342;2023-07-31T01:07:02;94392.88;;;29.56;49.75
8049;BME280;20935;42.660;23.342;2023-07-31T01:10:00;94397.13;;;29.57;49.76
8049;BME280;20935;42.660;23.342;2023-07-31T01:12:48;94390.84;;;29.56;50.06
8049;BME280;20935;42.660;23.342;2023-07-31T01:15:35;94391.59;;;29.57;49.80
8049;BME280;20935;42.660;23.342;2023-07-31T01:18:20;94389.06;;;29.59;49.72
8049;BME280;20935;42.660;23.342;2023-07-31T01:21:21;94389.81;;;29.59;49.93
8049;BME280;20935;42.660;23.342;2023-07-31T01:24:28;94387.34;;;29.56;50.07
8049;BME280;20935;42.660;23.342;2023-07-31T01:27:21;94385.66;;;29.53;49.98
8049;BME280;20935;42.660;23.342;2023-07-31T01:30:11;94388.19;;;29.51;50.17
8049;BME280;20935;42.660;23.342;2023-07-31T01:33:01;94381.19;;;29.50;49.76
8049;BME280;20935;42.660;23.342;2023-07-31T01:35:50;94375.66;;;29.50;49.85
8049;BME280;20935;42.660;23.342;2023-07-31T01:38:37;94378.19;;;29.48;49.92
8049;BME280;20935;42.660;23.342;2023-07-31T01:41:22;94383.94;;;29.50;49.90
8049;BME280;20935;42.660;23.342;2023-07-31T01:44:09;94368.66;;;29.49;49.80
8049;BME280;20935;42.660;23.342;2023-07-31T01:46:54;94376.94;;;29.49;49.83
8049;BME280;20935;42.660;23.342;2023-07-31T01:49:40;94373.41;;;29.48;49.78
8049;BME280;20935;42.660;23.342;2023-07-31T01:52:25;94374.16;;;29.49;50.10
8049;BME280;20935;42.660;23.342;2023-07-31T01:55:11;94372.66;;;29.48;49.72
8049;BME280;20935;42.660;23.342;2023-07-31T01:57:56;94383.72;;;29.48;49.94
8049;BME280;20935;42.660;23.342;2023-07-31T02:00:43;94387.97;;;29.49;49.93
8049;BME280;20935;42.660;23.342;2023-07-31T02:03:28;94382.97;;;29.47;50.02
8049;BME280;20935;42.660;23.342;2023-07-31T02:06:14;94382.22;;;29.47;49.83
8049;BME280;20935;42.660;23.342;2023-07-31T02:08:59;94381.47;;;29.46;50.02
8049;BME280;20935;42.660;23.342;2023-07-31T02:11:45;94387.00;;;29.46;49.96
8049;BME280;20935;42.660;23.342;2023-07-31T02:14:30;94391.78;;;29.46;50.23
8049;BME280;20935;42.660;23.342;2023-07-31T02:17:17;94389.22;;;29.48;49.99
8049;BME280;20935;42.660;23.342;2023-07-31T02:20:03;94392.22;;;29.50;49.98
8049;BME280;20935;42.660;23.342;2023-07-31T02:22:49;94385.97;;;29.49;50.14
8049;BME280;20935;42.660;23.342;2023-07-31T02:25:34;94393.25;;;29.47;49.88
8049;BME280;20935;42.660;23.342;2023-07-31T02:28:20;94399.75;;;29.49;50.01
8049;BME280;20935;42.660;23.342;2023-07-31T02:31:05;94386.72;;;29.50;49.93
8049;BME280;20935;42.660;23.342;2023-07-31T02:33:52;94388.28;;;29.45;50.25
8049;BME280;20935;42.660;23.342;2023-07-31T02:36:37;94393.81;;;29.45;50.26
8049;BME280;20935;42.660;23.342;2023-07-31T02:39:23;94391.03;;;29.45;50.12
8049;BME280;20935;42.660;23.342;2023-07-31T02:42:08;94390.28;;;29.45;49.97
8049;BME280;20935;42.660;23.342;2023-07-31T02:44:54;94384.03;;;29.44;49.91
8049;BME280;20935;42.660;23.342;2023-07-31T02:47:39;94390.81;;;29.43;49.92
8049;BME280;20935;42.660;23.342;2023-07-31T02:50:26;94394.31;;;29.44;50.08
8049;BME280;20935;42.660;23.342;2023-07-31T02:53:12;94399.84;;;29.44;50.13
8049;BME280;20935;42.660;23.342;2023-07-31T02:55:57;94399.84;;;29.44;50.01
8049;BME280;20935;42.660;23.342;2023-07-31T02:58:43;94406.09;;;29.44;50.02
8049;BME280;20935;42.660;23.342;2023-07-31T03:01:28;94408.13;;;29.44;50.00
8049;BME280;20935;42.660;23.342;2023-07-31T03:04:14;94407.38;;;29.43;50.39
8049;BME280;20935;42.660;23.342;2023-07-31T03:07:00;94415.66;;;29.43;50.24
8049;BME280;20935;42.660;23.342;2023-07-31T03:09:46;94415.66;;;29.43;50.19
8049;BME280;20935;42.660;23.342;2023-07-31T03:12:31;94414.91;;;29.43;50.16
8049;BME280;20935;42.660;23.342;2023-07-31T03:15:17;94423.19;;;29.43;50.20
8049;BME280;20935;42.660;23.342;2023-07-31T03:18:03;94429.44;;;29.43;50.07
8049;BME280;20935;42.660;23.342;2023-07-31T03:20:48;94422.47;;;29.42;50.11
8049;BME280;20935;42.660;23.342;2023-07-31T03:23:35;94421.91;;;29.44;50.08
8049;BME280;20935;42.660;23.342;2023-07-31T03:26:20;94426.69;;;29.43;49.93
8049;BME280;20935;42.660;23.342;2023-07-31T03:29:05;94431.16;;;29.46;50.45
8049;BME280;20935;42.660;23.342;2023-07-31T03:31:50;94425.44;;;29.44;50.31
8049;BME280;20935;42.660;23.342;2023-07-31T03:34:36;94425.94;;;29.43;50.20
8049;BME280;20935;42.660;23.342;2023-07-31T03:37:22;94431.47;;;29.43;50.29
8049;BME280;20935;42.660;23.342;2023-07-31T03:40:10;94432.75;;;29.42;50.63
8049;BME280;20935;42.660;23.342;2023-07-31T03:42:55;94434.97;;;29.43;50.13
8049;BME280;20935;42.660;23.342;2023-07-31T03:45:41;94430.75;;;29.42;50.28
8049;BME280;20935;42.660;23.342;2023-07-31T03:48:26;94430.75;;;29.42;50.60
8049;BME280;20935;42.660;23.342;2023-07-31T03:51:12;94434.75;;;29.41;50.42
8049;BME280;20935;42.660;23.342;2023-07-31T03:53:57;94432.00;;;29.41;50.32
8049;BME280;20935;42.660;23.342;2023-07-31T03:56:44;94441.03;;;29.42;50.36
8049;BME280;20935;42.660;23.342;2023-07-31T03:59:29;94445.06;;;29.41;50.46
8049;BME280;20935;42.660;23.342;2023-07-31T04:02:15;94447.06;;;29.40;50.46
8049;BME280;20935;42.660;23.342;2023-07-31T04:05:03;94442.28;;;29.41;50.30
8049;BME280;20935;42.660;23.342;2023-07-31T04:07:48;94449.84;;;29.40;50.38
8049;BME280;20935;42.660;23.342;2023-07-31T04:10:34;94451.31;;;29.41;50.27
8049;BME280;20935;42.660;23.342;2023-07-31T04:13:22;94450.56;;;29.41;50.45
8049;BME280;20935;42.660;23.342;2023-07-31T04:16:07;94450.56;;;29.41;50.30
8049;BME280;20935;42.660;23.342;2023-07-31T04:18:52;94454.09;;;29.41;50.23
8049;BME280;20935;42.660;23.342;2023-07-31T04:21:38;94456.09;;;29.41;50.52
8049;BME280;20935;42.660;23.342;2023-07-31T04:24:23;94456.09;;;29.41;50.14
8049;BME280;20935;42.660;23.342;2023-07-31T04:27:09;94451.84;;;29.39;50.22
8049;BME280;20935;42.660;23.342;2023-07-31T04:29:55;94454.59;;;29.39;50.45
8049;BME280;20935;42.660;23.342;2023-07-31T04:32:41;94456.84;;;29.41;50.64
8049;BME280;20935;42.660;23.342;2023-07-31T04:35:26;94457.38;;;29.39;50.32
8049;BME280;20935;42.660;23.342;2023-07-31T04:38:12;94456.09;;;29.41;50.17
8049;BME280;20935;42.660;23.342;2023-07-31T04:40:57;94465.13;;;29.41;50.33
8049;BME280;20935;42.660;23.342;2023-07-31T04:43:43;94460.88;;;29.40;50.38
8049;BME280;20935;42.660;23.342;2023-07-31T04:46:30;94462.38;;;29.41;50.42
8049;BME280;20935;42.660;23.342;2023-07-31T04:49:15;94455.34;;;29.40;50.24
8049;BME280;20935;42.660;23.342;2023-07-31T04:52:00;94458.84;;;29.41;50.48
8049;BME280;20935;42.660;23.342;2023-07-31T04:54:46;94453.34;;;29.41;50.45
8049;BME280;20935;42.660;23.342;2023-07-31T04:57:31;94465.13;;;29.41;50.49
8049;BME280;20935;42.660;23.342;2023-07-31T05:00:17;94453.34;;;29.41;50.58
8049;BME280;20935;42.660;23.342;2023-07-31T05:03:04;94456.84;;;29.41;50.27
8049;BME280;20935;42.660;23.342;2023-07-31T05:05:49;94456.09;;;29.41;50.53
8049;BME280;20935;42.660;23.342;2023-07-31T05:08:35;94452.81;;;29.42;50.47
8049;BME280;20935;42.660;23.342;2023-07-31T05:11:21;94452.06;;;29.42;50.58
8049;BME280;20935;42.660;23.342;2023-07-31T05:14:06;94452.06;;;29.42;50.48
8049;BME280;20935;42.660;23.342;2023-07-31T05:16:51;94452.06;;;29.42;50.52
8049;BME280;20935;42.660;23.342;2023-07-31T05:19:38;94449.31;;;29.42;50.24
8049;BME280;20935;42.660;23.342;2023-07-31T05:22:24;94452.72;;;29.48;50.46
8049;BME280;20935;42.660;23.342;2023-07-31T05:25:09;94441.91;;;29.50;50.25
8049;BME280;20935;42.660;23.342;2023-07-31T05:27:55;94448.16;;;29.50;50.18
8049;BME280;20935;42.660;23.342;2023-07-31T05:30:40;94442.66;;;29.50;50.26
8049;BME280;20935;42.660;23.342;2023-07-31T05:33:26;94441.91;;;29.50;50.47
8049;BME280;20935;42.660;23.342;2023-07-31T05:36:14;94445.19;;;29.48;50.27
8049;BME280;20935;42.660;23.342;2023-07-31T05:39:00;94434.16;;;29.48;50.35
8049;BME280;20935;42.660;23.342;2023-07-31T05:41:50;94445.94;;;29.49;50.45
8049;BME280;20935;42.660;23.342;2023-07-31T05:44:35;94437.66;;;29.49;50.43
8049;BME280;20935;42.660;23.342;2023-07-31T05:47:21;94440.44;;;29.49;50.22
8049;BME280;20935;42.660;23.342;2023-07-31T05:50:06;94439.69;;;29.48;50.49
8049;BME280;20935;42.660;23.342;2023-07-31T05:52:54;94448.16;;;29.50;50.62
8049;BME280;20935;42.660;23.342;2023-07-31T05:55:39;94439.16;;;29.50;50.49
8049;BME280;20935;42.660;23.342;2023-07-31T05:58:25;94454.22;;;29.49;50.43
8049;BME280;20935;42.660;23.342;2023-07-31T06:01:10;94452.97;;;29.50;50.49
8049;BME280;20935;42.660;23.342;2023-07-31T06:03:56;94461.25;;;29.50;50.42
8049;BME280;20935;42.660;23.342;2023-07-31T06:06:41;94465.47;;;29.51;50.50
8049;BME280;20935;42.660;23.342;2023-07-31T06:09:28;94466.78;;;29.50;50.45
8049;BME280;20935;42.660;23.342;2023-07-31T06:12:13;94469.53;;;29.50;50.51
8049;BME280;20935;42.660;23.342;2023-07-31T06:15:02;94466.03;;;29.49;50.28
8049;BME280;20935;42.660;23.342;2023-07-31T06:17:48;94459.22;;;29.50;50.48
8049;BME280;20935;42.660;23.342;2023-07-31T06:20:34;94471.00;;;29.51;50.34
8049;BME280;20935;42.660;23.342;2023-07-31T06:23:20;94455.94;;;29.52;50.67
8049;BME280;20935;42.660;23.342;2023-07-31T06:26:07;94450.41;;;29.52;50.64
8049;BME280;20935;42.660;23.342;2023-07-31T06:28:52;94460.19;;;29.53;50.42
8049;BME280;20935;42.660;23.342;2023-07-31T06:31:38;94461.97;;;29.50;50.28
8049;BME280;20935;42.660;23.342;2023-07-31T06:34:23;94454.44;;;29.51;50.34
8049;BME280;20935;42.660;23.342;2023-07-31T06:37:08;94459.97;;;29.51;50.50
8049;BME280;20935;42.660;23.342;2023-07-31T06:39:54;94457.44;;;29.53;50.69
8049;BME280;20935;42.660;23.342;2023-07-31T06:42:41;94461.47;;;29.52;50.56
8049;BME280;20935;42.660;23.342;2023-07-31T06:45:26;94470.25;;;29.50;50.45
8049;BME280;20935;42.660;23.342;2023-07-31T06:48:11;94459.22;;;29.50;50.58
8049;BME280;20935;42.660;23.342;2023-07-31T06:50:57;94466.03;;;29.49;50.51
8049;BME280;20935;42.660;23.342;2023-07-31T06:53:42;94472.06;;;29.48;50.58
8049;BME280;20935;42.660;23.342;2023-07-31T06:56:29;94465.28;;;29.49;50.58
8049;BME280;20935;42.660;23.342;2023-07-31T06:59:15;94480.56;;;29.50;50.47
8049;BME280;20935;42.660;23.342;2023-07-31T07:02:01;94469.53;;;29.50;50.76
8049;BME280;20935;42.660;23.342;2023-07-31T07:04:46;94472.81;;;29.48;50.31
8049;BME280;20935;42.660;23.342;2023-07-31T07:07:32;94475.06;;;29.50;50.31
8049;BME280;20935;42.660;23.342;2023-07-31T07:10:17;94466.03;;;29.49;50.51
8049;BME280;20935;42.660;23.342;2023-07-31T07:13:03;94472.28;;;29.50;50.49
8049;BME280;20935;42.660;23.342;2023-07-31T07:15:50;94464.72;;;29.50;50.77
8049;BME280;20935;42.660;23.342;2023-07-31T07:18:35;94481.28;;;29.50;50.51
8049;BME280;20935;42.660;23.342;2023-07-31T07:21:21;94470.25;;;29.50;50.48
8049;BME280;20935;42.660;23.342;2023-07-31T07:24:06;94466.03;;;29.49;50.26
8049;BME280;20935;42.660;23.342;2023-07-31T07:26:52;94464.00;;;29.50;50.80
8049;BME280;20935;42.660;23.342;2023-07-31T07:29:38;94464.72;;;29.50;50.74
8049;BME280;20935;42.660;23.342;2023-07-31T07:32:25;94463.25;;;29.49;50.59
8049;BME280;20935;42.660;23.342;2023-07-31T07:35:10;94464.00;;;29.50;50.52
8049;BME280;20935;42.660;23.342;2023-07-31T07:37:55;94462.50;;;29.49;50.46
8049;BME280;20935;42.660;23.342;2023-07-31T07:40:41;94458.25;;;29.48;50.77
8049;BME280;20935;42.660;23.342;2023-07-31T07:43:26;94467.28;;;29.48;50.44
8049;BME280;20935;42.660;23.342;2023-07-31T07:46:12;94459.75;;;29.49;50.47
8049;BME280;20935;42.660;23.342;2023-07-31T07:48:59;94466.78;;;29.50;50.79
8049;BME280;20935;42.660;23.342;2023-07-31T07:51:44;94471.00;;;29.51;50.30
8049;BME280;20935;42.660;23.342;2023-07-31T07:54:30;94483.53;;;29.52;50.34
8049;BME280;20935;42.660;23.342;2023-07-31T07:57:15;94469.75;;;29.52;50.69
8049;BME280;20935;42.660;23.342;2023-07-31T08:00:01;94476.00;;;29.52;50.40
8049;BME280;20935;42.660;23.342;2023-07-31T08:02:46;94476.00;;;29.52;50.55
8049;BME280;20935;42.660;23.342;2023-07-31T08:05:33;94480.78;;;29.52;50.43
8049;BME280;20935;42.660;23.342;2023-07-31T08:08:19;94475.50;;;29.54;50.26
8049;BME280;20935;42.660;23.342;2023-07-31T08:11:04;94474.00;;;29.53;50.18
8049;BME280;20935;42.660;23.342;2023-07-31T08:13:50;94469.22;;;29.53;50.25
8049;BME280;20935;42.660;23.342;2023-07-31T08:16:35;94479.72;;;29.55;50.16
8049;BME280;20935;42.660;23.342;2023-07-31T08:19:20;94483.22;;;29.55;50.32
8049;BME280;20935;42.660;23.342;2023-07-31T08:22:07;94476.22;;;29.54;50.41
8049;BME280;20935;42.660;23.342;2023-07-31T08:24:53;94474.94;;;29.55;50.46
8049;BME280;20935;42.660;23.342;2023-07-31T08:27:38;94474.44;;;29.57;50.57
8049;BME280;20935;42.660;23.342;2023-07-31T08:30:24;94474.44;;;29.57;50.55
8049;BME280;20935;42.660;23.342;2023-07-31T08:33:09;94473.69;;;29.56;50.56
8049;BME280;20935;42.660;23.342;2023-07-31T08:35:54;94472.44;;;29.57;50.33
8049;BME280;20935;42.660;23.342;2023-07-31T08:38:41;94479.97;;;29.57;50.08
8049;BME280;20935;42.660;23.342;2023-07-31T08:41:27;94469.66;;;29.57;50.30
8049;BME280;20935;42.660;23.342;2023-07-31T08:44:14;94468.38;;;29.58;50.33
8049;BME280;20935;42.660;23.342;2023-07-31T08:47:01;94474.66;;;29.59;50.22
8049;BME280;20935;42.660;23.342;2023-07-31T08:49:47;94478.16;;;29.59;50.12
8049;BME280;20935;42.660;23.342;2023-07-31T08:52:32;94469.38;;;29.61;50.46
8049;BME280;20935;42.660;23.342;2023-07-31T08:55:19;94469.38;;;29.61;50.54
8049;BME280;20935;42.660;23.342;2023-07-31T08:58:07;94472.13;;;29.61;50.12
8049;BME280;20935;42.660;23.342;2023-07-31T09:00:54;94479.16;;;29.62;49.93
8049;BME280;20935;42.660;23.342;2023-07-31T09:03:40;94474.13;;;29.60;49.85
8049;BME280;20935;42.660;23.342;2023-07-31T09:06:28;94469.13;;;29.59;50.02
8049;BME280;20935;42.660;23.342;2023-07-31T09:09:16;94474.88;;;29.61;50.13
8049;BME280;20935;42.660;23.342;2023-07-31T09:12:04;94465.34;;;29.62;49.81
8049;BME280;20935;42.660;23.342;2023-07-31T09:14:50;94465.34;;;29.62;50.08
8049;BME280;20935;42.660;23.342;2023-07-31T09:17:36;94462.56;;;29.62;50.32
8049;BME280;20935;42.660;23.342;2023-07-31T09:20:22;94463.28;;;29.62;50.28
8049;BME280;20935;42.660;23.342;2023-07-31T09:23:08;94453.75;;;29.63;50.15
8049;BME280;20935;42.660;23.342;2023-07-31T09:25:54;94460.03;;;29.64;50.26
8049;BME280;20935;42.660;23.342;2023-07-31T09:28:41;94449.72;;;29.64;50.13
8049;BME280;20935;42.660;23.342;2023-07-31T09:31:42;94446.97;;;29.64;49.90
8049;BME280;20935;42.660;23.342;2023-07-31T09:34:30;94446.44;;;29.66;50.23
8049;BME280;20935;42.660;23.342;2023-07-31T09:37:16;94432.63;;;29.66;50.05
8049;BME280;20935;42.660;23.342;2023-07-31T09:40:03;94435.41;;;29.66;50.16
8049;BME280;20935;42.660;23.342;2023-07-31T09:42:49;94436.88;;;29.67;49.98
8049;BME280;20935;42.660;23.342;2023-07-31T09:45:36;94445.16;;;29.67;50.06
8049;BME280;20935;42.660;23.342;2023-07-31T09:48:23;94435.59;;;29.68;50.13
8049;BME280;20935;42.660;23.342;2023-07-31T09:51:10;94435.09;;;29.69;49.99
8049;BME280;20935;42.660;23.342;2023-07-31T09:53:56;94436.34;;;29.68;50.05
8049;BME280;20935;42.660;23.342;2023-07-31T09:56:43;94435.84;;;29.70;50.12
8049;BME280;20935;42.660;23.342;2023-07-31T09:59:29;94427.56;;;29.70;50.03
8049;BME280;20935;42.660;23.342;2023-07-31T10:02:21;94431.78;;;29.71;49.85
8049;BME280;20935;42.660;23.342;2023-07-31T10:05:07;94426.25;;;29.71;50.05
8049;BME280;20935;42.660;23.342;2023-07-31T10:07:54;94433.81;;;29.70;49.96
8049;BME280;20935;42.660;23.342;2023-07-31T10:10:41;94433.81;;;29.70;50.19
8049;BME280;20935;42.660;23.342;2023-07-31T10:13:28;94431.78;;;29.71;49.98
8049;BME280;20935;42.660;23.342;2023-07-31T10:16:14;94434.53;;;29.71;49.96
8049;BME280;20935;42.660;23.342;2023-07-31T10:19:01;94431.28;;;29.72;50.26
8049;BME280;20935;42.660;23.342;2023-07-31T10:21:48;94428.00;;;29.74;49.95
8049;BME280;20935;42.660;23.342;2023-07-31T10:24:34;94425.94;;;29.74;49.86
8049;BME280;20935;42.660;23.342;2023-07-31T10:27:21;94425.94;;;29.74;50.10
8049;BME280;20935;42.660;23.342;2023-07-31T10:30:11;94422.47;;;29.74;50.09
8049;BME280;20935;42.660;23.342;2023-07-31T10:32:57;94423.94;;;29.75;49.81
8049;BME280;20935;42.660;23.342;2023-07-31T10:35:46;94412.16;;;29.74;49.85
8049;BME280;20935;42.660;23.342;2023-07-31T10:38:32;94418.41;;;29.75;50.15
8049;BME280;20935;42.660;23.342;2023-07-31T10:41:17;94401.84;;;29.75;49.69
8049;BME280;20935;42.660;23.342;2023-07-31T10:44:03;94413.66;;;29.75;49.73
8049;BME280;20935;42.660;23.342;2023-07-31T10:46:54;94421.41;;;29.77;49.72
8049;BME280;20935;42.660;23.342;2023-07-31T10:49:39;94416.63;;;29.77;50.06
8049;BME280;20935;42.660;23.342;2023-07-31T10:52:34;94409.06;;;29.78;49.82
8049;BME280;20935;42.660;23.342;2023-07-31T10:55:28;94398.03;;;29.78;49.87
8049;BME280;20935;42.660;23.342;2023-07-31T10:58:18;94401.53;;;29.78;49.88
8049;BME280;20935;42.660;23.342;2023-07-31T11:01:05;94396.75;;;29.79;50.11
8049;BME280;20935;42.660;23.342;2023-07-31T11:03:51;94394.00;;;29.79;49.96
8049;BME280;20935;42.660;23.342;2023-07-31T11:06:36;94389.00;;;29.77;49.98
8049;BME280;20935;42.660;23.342;2023-07-31T11:09:24;94389.75;;;29.78;49.88
8049;BME280;20935;42.660;23.342;2023-07-31T11:12:12;94377.44;;;29.79;50.08
8049;BME280;20935;42.660;23.342;2023-07-31T11:14:58;94392.72;;;29.80;50.09
8049;BME280;20935;42.660;23.342;2023-07-31T11:17:43;94385.19;;;29.80;49.89
8049;BME280;20935;42.660;23.342;2023-07-31T11:20:29;94390.72;;;29.80;49.78
8049;BME280;20935;42.660;23.342;2023-07-31T11:23:16;94382.44;;;29.80;50.04
8049;BME280;20935;42.660;23.342;2023-07-31T11:26:05;94389.44;;;29.81;49.89
8049;BME280;20935;42.660;23.342;2023-07-31T11:28:50;94392.72;;;29.80;50.02
8049;BME280;20935;42.660;23.342;2023-07-31T11:31:42;94384.44;;;29.80;49.92
8049;BME280;20935;42.660;23.342;2023-07-31T11:34:27;94392.94;;;29.82;49.91
8049;BME280;20935;42.660;23.342;2023-07-31T11:37:13;94383.19;;;29.81;49.69
8049;BME280;20935;42.660;23.342;2023-07-31T11:39:59;94376.38;;;29.82;49.71
8049;BME280;20935;42.660;23.342;2023-07-31T11:42:46;94383.94;;;29.81;49.97
8049;BME280;20935;42.660;23.342;2023-07-31T11:45:31;94372.13;;;29.81;49.87
8049;BME280;20935;42.660;23.342;2023-07-31T11:48:23;94368.06;;;29.82;49.91
8049;BME280;20935;42.660;23.342;2023-07-31T11:51:12;94375.09;;;29.83;49.85
8049;BME280;20935;42.660;23.342;2023-07-31T11:54:00;94367.56;;;29.83;49.76
8049;BME280;20935;42.660;23.342;2023-07-31T11:56:46;94376.59;;;29.84;49.66
8049;BME280;20935;42.660;23.342;2023-07-31T11:59:33;94380.09;;;29.84;49.94
8049;BME280;20935;42.660;23.342;2023-07-31T12:02:19;94367.03;;;29.85;50.02
8049;BME280;20935;42.660;23.342;2023-07-31T12:05:05;94369.81;;;29.85;49.75
8049;BME280;20935;42.660;23.342;2023-07-31T12:07:51;94363.00;;;29.86;49.74
8049;BME280;20935;42.660;23.342;2023-07-31T12:10:37;94368.53;;;29.86;49.90
8049;BME280;20935;42.660;23.342;2023-07-31T12:13:26;94355.47;;;29.87;49.64
8049;BME280;20935;42.660;23.342;2023-07-31T12:16:13;94359.72;;;29.88;49.75
8049;BME280;20935;42.660;23.342;2023-07-31T12:18:58;94362.72;;;29.90;49.77
8049;BME280;20935;42.660;23.342;2023-07-31T12:21:44;94356.44;;;29.89;49.75
8049;BME280;20935;42.660;23.342;2023-07-31T12:24:29;94355.91;;;29.91;49.81
8049;BME280;20935;42.660;23.342;2023-07-31T12:27:15;94351.69;;;29.90;49.72
8049;BME280;20935;42.660;23.342;2023-07-31T12:30:03;94354.13;;;29.93;49.86
8049;BME280;20935;42.660;23.342;2023-07-31T12:32:50;94356.13;;;29.93;49.99
8049;BME280;20935;42.660;23.342;2023-07-31T12:35:36;94352.63;;;29.92;49.70
8049;BME280;20935;42.660;23.342;2023-07-31T12:38:22;94356.88;;;29.93;49.69
8049;BME280;20935;42.660;23.342;2023-07-31T12:41:08;94351.34;;;29.93;49.77
8049;BME280;20935;42.660;23.342;2023-07-31T12:43:53;94352.81;;;29.94;49.98
8049;BME280;20935;42.660;23.342;2023-07-31T12:46:38;94356.88;;;29.93;49.64
8049;BME280;20935;42.660;23.342;2023-07-31T12:49:25;94354.13;;;29.93;49.92
8049;BME280;20935;42.660;23.342;2023-07-31T12:52:10;94339.56;;;29.93;49.63
8049;BME280;20935;42.660;23.342;2023-07-31T12:54:56;94334.03;;;29.93;49.69
8049;BME280;20935;42.660;23.342;2023-07-31T12:57:41;94331.28;;;29.93;49.76
8049;BME280;20935;42.660;23.342;2023-07-31T13:00:26;94330.53;;;29.92;49.62
8049;BME280;20935;42.660;23.342;2023-07-31T13:03:12;94329.25;;;29.93;49.60
8049;BME280;20935;42.660;23.342;2023-07-31T13:05:59;94322.44;;;29.94;49.60
8049;BME280;20935;42.660;23.342;2023-07-31T13:08:44;94319.66;;;29.94;49.38
8049;BME280;20935;42.660;23.342;2023-07-31T13:11:30;94321.16;;;29.95;49.69
8049;BME280;20935;42.660;23.342;2023-07-31T13:14:15;94322.66;;;29.96;49.65
8049;BME280;20935;42.660;23.342;2023-07-31T13:17:00;94331.69;;;29.97;49.56
8049;BME280;20935;42.660;23.342;2023-07-31T13:19:46;94328.94;;;29.97;49.46
8049;BME280;20935;42.660;23.342;2023-07-31T13:22:33;94328.19;;;29.96;49.53
8049;BME280;20935;42.660;23.342;2023-07-31T13:25:18;94337.22;;;29.97;49.37
8049;BME280;20935;42.660;23.342;2023-07-31T13:28:03;94334.47;;;29.97;49.77
8049;BME280;20935;42.660;23.342;2023-07-31T13:30:49;94333.72;;;29.96;49.44
8049;BME280;20935;42.660;23.342;2023-07-31T13:33:34;94325.44;;;29.96;49.57
8049;BME280;20935;42.660;23.342;2023-07-31T13:36:20;94328.94;;;29.97;49.38
8049;BME280;20935;42.660;23.342;2023-07-31T13:39:07;94322.66;;;29.96;49.69
8049;BME280;20935;42.660;23.342;2023-07-31T13:41:52;94333.19;;;29.98;49.52
8049;BME280;20935;42.660;23.342;2023-07-31T13:44:38;94332.44;;;29.97;49.66
8049;BME280;20935;42.660;23.342;2023-07-31T13:47:23;94333.19;;;29.98;49.48
8049;BME280;20935;42.660;23.342;2023-07-31T13:50:09;94331.47;;;29.95;49.62
8049;BME280;20935;42.660;23.342;2023-07-31T13:52:54;94332.44;;;29.97;49.51
8049;BME280;20935;42.660;23.342;2023-07-31T13:55:42;94332.44;;;29.97;49.51
8049;BME280;20935;42.660;23.342;2023-07-31T13:58:29;94330.44;;;29.98;49.48
8049;BME280;20935;42.660;23.342;2023-07-31T14:01:15;94333.72;;;29.96;49.64
8049;BME280;20935;42.660;23.342;2023-07-31T14:04:00;94327.13;;;29.99;49.78
8049;BME280;20935;42.660;23.342;2023-07-31T14:06:46;94324.34;;;29.99;49.48
8049;BME280;20935;42.660;23.342;2023-07-31T14:09:34;94329.88;;;29.99;49.58
8049;BME280;20935;42.660;23.342;2023-07-31T14:12:21;94324.34;;;29.99;49.54
8049;BME280;20935;42.660;23.342;2023-07-31T14:15:07;94325.84;;;30.00;49.62
8049;BME280;20935;42.660;23.342;2023-07-31T14:17:53;94326.59;;;30.01;49.67
8049;BME280;20935;42.660;23.342;2023-07-31T14:20:38;94327.13;;;29.99;49.30
8049;BME280;20935;42.660;23.342;2023-07-31T14:23:23;94318.84;;;29.99;49.55
8049;BME280;20935;42.660;23.342;2023-07-31T14:26:09;94322.34;;;30.00;49.45
8049;BME280;20935;42.660;23.342;2023-07-31T14:28:56;94321.59;;;29.99;49.74
8049;BME280;20935;42.660;23.342;2023-07-31T14:31:41;94325.84;;;30.00;49.42
8049;BME280;20935;42.660;23.342;2023-07-31T14:34:26;94324.34;;;29.99;49.63
8049;BME280;20935;42.660;23.342;2023-07-31T14:37:12;94323.09;;;30.00;49.74
8049;BME280;20935;42.660;23.342;2023-07-31T14:39:57;94317.56;;;30.00;49.52